createdAt,value
2022-07-27T00:01:34.039Z,95963.00
2022-07-27T00:06:37.234Z,95970.34
2022-07-27T00:11:40.351Z,95967.31
2022-07-27T00:16:44.652Z,95967.50
2022-07-27T00:21:47.563Z,95965.88
2022-07-27T00:26:50.623Z,95966.50
2022-07-27T00:31:54.870Z,95971.38
2022-07-27T00:36:57.774Z,95981.75
2022-07-27T00:42:00.605Z,95980.72
2022-07-27T00:47:05.136Z,95987.25
2022-07-27T00:52:08.809Z,95984.59
2022-07-27T00:57:12.104Z,95978.06
2022-07-27T01:02:19.480Z,95974.81
2022-07-27T01:07:23.659Z,95970.97
2022-07-27T01:12:28.355Z,95974.66
2022-07-27T01:17:32.536Z,95967.72
2022-07-27T01:22:36.864Z,95962.41
2022-07-27T01:27:39.694Z,95963.66
2022-07-27T01:32:42.606Z,95965.91
2022-07-27T01:37:48.329Z,95963.66
2022-07-27T01:42:51.456Z,95949.41
2022-07-27T01:47:54.327Z,95953.03
2022-07-27T01:52:58.689Z,95946.28
2022-07-27T01:58:03.934Z,95943.78
2022-07-27T02:03:08.254Z,95934.19
2022-07-27T02:08:13.458Z,95929.06
2022-07-27T02:13:22.892Z,95911.75
2022-07-27T02:18:33.597Z,95912.06
2022-07-27T02:23:44.650Z,95895.78
2022-07-27T02:28:47.478Z,95892.91
2022-07-27T02:33:50.286Z,95881.91
2022-07-27T02:38:54.474Z,95878.81
2022-07-27T02:43:57.299Z,95883.84
2022-07-27T02:49:00.192Z,95879.31
2022-07-27T02:54:04.763Z,95866.75
2022-07-27T02:59:07.559Z,95874.84
2022-07-27T03:04:10.477Z,95881.19
2022-07-27T03:09:15.299Z,95887.31
2022-07-27T03:14:18.354Z,95891.50
2022-07-27T03:19:21.266Z,95883.72
2022-07-27T03:24:25.475Z,95895.13
2022-07-27T03:29:29.408Z,95891.19
2022-07-27T03:34:32.558Z,95891.47
2022-07-27T03:39:36.748Z,95887.75
2022-07-27T03:44:39.859Z,95892.84
2022-07-27T03:49:42.697Z,95887.66
2022-07-27T03:54:47.006Z,95901.28
2022-07-27T03:59:49.872Z,95899.97
2022-07-27T04:04:52.779Z,95910.91
2022-07-27T04:09:57.070Z,95904.00
2022-07-27T04:14:59.937Z,95899.88
2022-07-27T04:20:02.810Z,95908.63
2022-07-27T04:25:08.149Z,95897.44
2022-07-27T04:30:12.031Z,95907.19
2022-07-27T04:35:14.870Z,95913.97
2022-07-27T04:40:19.047Z,95904.44
2022-07-27T04:45:21.899Z,95904.09
2022-07-27T04:50:25.267Z,95894.34
2022-07-27T04:55:29.464Z,95905.50
2022-07-27T05:00:32.274Z,95900.75
2022-07-27T05:05:35.114Z,95898.28
2022-07-27T05:10:39.322Z,95903.47
2022-07-27T05:15:53.965Z,95900.16
2022-07-27T05:20:57.065Z,95904.53
2022-07-27T05:26:01.272Z,95911.09
2022-07-27T05:31:04.190Z,95916.34
2022-07-27T05:36:07.595Z,95911.19
2022-07-27T05:41:12.124Z,95915.41
2022-07-27T05:46:15.058Z,95924.59
2022-07-27T05:51:17.983Z,95922.00
2022-07-27T05:56:22.202Z,95930.03
2022-07-27T06:01:25.095Z,95934.59
2022-07-27T06:06:45.675Z,95930.75
2022-07-27T06:11:49.893Z,95938.47
2022-07-27T06:16:52.801Z,95940.13
2022-07-27T06:21:55.645Z,95946.81
2022-07-27T06:26:59.875Z,95942.38
2022-07-27T06:32:02.757Z,95946.94
2022-07-27T06:37:05.777Z,95943.50
2022-07-27T06:42:09.969Z,95945.34
2022-07-27T06:47:12.897Z,95953.25
2022-07-27T06:52:16.081Z,95955.31
2022-07-27T06:57:20.320Z,95951.03
2022-07-27T07:02:23.164Z,95950.16
2022-07-27T07:07:26.385Z,95948.44
2022-07-27T07:12:32.110Z,95941.25
2022-07-27T07:17:35.490Z,95950.06
2022-07-27T07:22:38.308Z,95945.47
2022-07-27T07:27:42.862Z,95955.41
2022-07-27T07:32:45.560Z,95948.72
2022-07-27T07:37:50.092Z,95945.50
2022-07-27T07:42:56.889Z,95946.78
2022-07-27T07:47:59.838Z,95951.03
2022-07-27T07:53:02.663Z,95938.09
2022-07-27T07:58:06.873Z,95935.75
2022-07-27T08:03:09.886Z,95938.25
2022-07-27T08:08:12.846Z,95929.78
2022-07-27T08:13:21.881Z,95931.09
2022-07-27T08:18:25.177Z,95929.28
2022-07-27T08:23:28.163Z,95930.97
2022-07-27T08:28:36.895Z,95933.31
2022-07-27T08:33:41.068Z,95939.34
2022-07-27T08:38:44.006Z,95926.75
2022-07-27T08:43:49.893Z,95924.72
2022-07-27T08:48:53.990Z,95920.59
2022-07-27T08:53:57.312Z,95916.91
2022-07-27T08:59:01.477Z,95911.69
2022-07-27T09:04:04.101Z,95916.38
2022-07-27T09:09:06.949Z,95912.09
2022-07-27T09:14:12.414Z,95920.09
2022-07-27T09:19:16.653Z,95929.69
2022-07-27T09:24:44.388Z,95921.94
2022-07-27T09:29:43.422Z,95928.38
2022-07-27T09:34:46.333Z,95920.81
2022-07-27T09:39:49.236Z,95915.16
2022-07-27T09:44:56.481Z,95924.97
2022-07-27T09:50:17.959Z,95913.38
2022-07-27T09:55:22.095Z,95915.63
2022-07-27T10:00:26.765Z,95920.06
2022-07-27T10:05:29.701Z,95909.66
2022-07-27T10:10:32.780Z,95912.34
2022-07-27T10:15:37.189Z,95916.28
2022-07-27T10:20:42.406Z,95907.84
2022-07-27T10:26:20.565Z,95903.00
2022-07-27T10:31:27.219Z,95896.28
2022-07-27T10:36:53.880Z,95895.81
2022-07-27T10:42:24.466Z,95901.19
2022-07-27T10:47:37.834Z,95902.88
2022-07-27T10:52:42.856Z,95888.97
2022-07-27T10:57:45.668Z,95890.56
2022-07-27T11:02:49.876Z,95890.78
2022-07-27T11:08:29.559Z,95891.34
2022-07-27T11:13:16.102Z,95889.22
2022-07-27T11:18:28.400Z,95884.72
2022-07-27T11:28:54.288Z,95877.13
2022-07-27T11:34:00.538Z,95863.09
2022-07-27T11:39:03.765Z,95857.59
2022-07-27T11:44:09.554Z,95857.78
2022-07-27T11:49:15.883Z,95865.41
2022-07-27T11:54:21.239Z,95852.13
2022-07-27T11:59:25.702Z,95861.72
2022-07-27T12:04:31.156Z,95849.50
2022-07-27T12:09:38.576Z,95842.81
2022-07-27T12:14:43.726Z,95835.47
2022-07-27T12:20:00.629Z,95837.44
2022-07-27T12:25:09.913Z,95824.00
2022-07-27T12:30:20.124Z,95822.94
2022-07-27T12:35:26.799Z,95816.47
2022-07-27T12:40:30.628Z,95819.19
2022-07-27T12:45:35.819Z,95819.75
2022-07-27T12:50:41.541Z,95816.47
2022-07-27T12:55:45.557Z,95811.72
2022-07-27T13:00:48.761Z,95813.06
2022-07-27T13:05:53.367Z,95806.44
2022-07-27T13:10:59.801Z,95802.91
2022-07-27T13:16:02.881Z,95799.94
2022-07-27T13:21:07.156Z,95807.97
2022-07-27T13:26:10.015Z,95794.53
2022-07-27T13:31:12.928Z,95786.47
2022-07-27T13:36:17.175Z,95784.34
2022-07-27T13:41:20.110Z,95770.38
2022-07-27T13:46:22.992Z,95765.38
2022-07-27T13:51:27.401Z,95761.78
2022-07-27T13:56:32.525Z,95762.28
2022-07-27T14:01:37.523Z,95762.75
2022-07-27T14:06:44.642Z,95756.69
2022-07-27T14:11:52.770Z,95757.38
2022-07-27T14:16:56.053Z,95745.16
2022-07-27T14:22:00.320Z,95746.56
2022-07-27T14:27:03.166Z,95745.91
2022-07-27T14:32:06.356Z,95742.78
2022-07-27T14:37:10.951Z,95737.81
2022-07-27T14:42:14.230Z,95741.75
2022-07-27T14:47:17.357Z,95728.66
2022-07-27T14:52:21.553Z,95741.19
2022-07-27T14:57:24.392Z,95728.19
2022-07-27T15:02:27.515Z,95728.59
2022-07-27T15:07:31.839Z,95726.41
2022-07-27T15:12:37.835Z,95721.38
2022-07-27T15:17:40.933Z,95713.41
2022-07-27T15:22:45.126Z,95724.69
2022-07-27T15:27:47.970Z,95717.53
2022-07-27T15:32:50.818Z,95717.19
2022-07-27T15:37:55.150Z,95702.53
2022-07-27T15:42:57.998Z,95706.50
2022-07-27T15:48:00.847Z,95708.00
2022-07-27T15:53:05.710Z,95706.16
2022-07-27T15:58:08.716Z,95718.72
2022-07-27T16:03:12.840Z,95700.03
2022-07-27T16:08:22.787Z,95691.03
2022-07-27T16:13:26.354Z,95688.19
2022-07-27T16:18:29.674Z,95679.59
2022-07-27T16:23:33.885Z,95680.78
2022-07-27T16:28:39.752Z,95679.13
2022-07-27T16:33:45.190Z,95669.72
2022-07-27T16:38:51.442Z,95669.16
2022-07-27T16:43:54.253Z,95666.13
2022-07-27T16:48:57.087Z,95664.81
2022-07-27T16:54:01.324Z,95662.66
2022-07-27T16:59:04.687Z,95668.25
2022-07-27T17:04:07.684Z,95666.53
2022-07-27T17:09:12.246Z,95668.38
2022-07-27T17:14:17.077Z,95669.50
2022-07-27T17:19:20.491Z,95667.31
2022-07-27T17:24:24.769Z,95670.19
2022-07-27T17:29:29.433Z,95677.06
2022-07-27T17:34:32.586Z,95669.34
2022-07-27T17:39:36.784Z,95676.50
2022-07-27T17:44:40.510Z,95679.44
2022-07-27T17:49:43.811Z,95673.72
2022-07-27T17:54:48.494Z,95672.38
2022-07-27T17:59:51.478Z,95671.03
2022-07-27T18:04:54.380Z,95674.69
2022-07-27T18:09:59.267Z,95684.03
2022-07-27T18:15:19.398Z,95680.22
2022-07-27T18:20:22.369Z,95687.63
2022-07-27T18:25:26.364Z,95690.25
2022-07-27T18:30:29.473Z,95684.78
2022-07-27T18:35:32.614Z,95691.47
2022-07-27T18:40:36.915Z,95693.16
2022-07-27T18:45:40.696Z,95700.13
2022-07-27T18:50:43.570Z,95704.84
2022-07-27T18:55:52.729Z,95695.03
2022-07-27T19:00:59.546Z,95690.06
2022-07-27T19:06:02.211Z,95700.91
2022-07-27T19:11:06.852Z,95695.41
2022-07-27T19:16:10.495Z,95695.97
2022-07-27T19:21:13.299Z,95697.31
2022-07-27T19:26:17.513Z,95703.59
2022-07-27T19:31:22.713Z,95699.13
2022-07-27T19:36:26.723Z,95710.56
2022-07-27T19:41:31.065Z,95718.31
2022-07-27T19:46:33.943Z,95716.53
2022-07-27T19:51:36.873Z,95720.25
2022-07-27T19:56:41.108Z,95725.19
2022-07-27T20:01:43.946Z,95728.44
2022-07-27T20:06:46.839Z,95732.50
2022-07-27T20:11:51.035Z,95733.28
2022-07-27T20:16:53.757Z,95737.63
2022-07-27T20:21:57.257Z,95739.25
2022-07-27T20:27:01.469Z,95737.31
2022-07-27T20:32:04.741Z,95753.41
2022-07-27T20:37:07.574Z,95749.53
2022-07-27T20:42:11.817Z,95748.22
2022-07-27T20:47:14.686Z,95759.13
2022-07-27T20:52:17.930Z,95759.88
2022-07-27T20:57:22.090Z,95749.38
2022-07-27T21:02:24.958Z,95751.19
2022-07-27T21:07:27.852Z,95756.28
2022-07-27T21:12:33.625Z,95755.94
2022-07-27T21:17:36.533Z,95758.94
2022-07-27T21:22:39.345Z,95759.41
2022-07-27T21:27:43.571Z,95763.59
2022-07-27T21:32:47.796Z,95757.09
2022-07-27T21:37:50.718Z,95757.00
2022-07-27T21:42:54.918Z,95752.84
2022-07-27T21:47:57.751Z,95749.28
2022-07-27T21:53:00.906Z,95755.84
2022-07-27T21:58:05.101Z,95761.88
2022-07-27T22:03:08.472Z,95757.03
2022-07-27T22:08:11.335Z,95754.81
2022-07-27T22:13:15.528Z,95761.09
2022-07-27T22:18:19.014Z,95765.47
2022-07-27T22:23:21.887Z,95771.41
2022-07-27T22:28:26.337Z,95770.72
2022-07-27T22:33:29.400Z,95780.06
2022-07-27T22:38:32.312Z,95770.34
2022-07-27T22:43:36.570Z,95759.94
2022-07-27T22:48:39.572Z,95770.81
2022-07-27T22:53:42.413Z,95764.69
2022-07-27T22:58:46.630Z,95778.88
2022-07-27T23:03:49.466Z,95773.69
2022-07-27T23:08:52.334Z,95779.31
2022-07-27T23:13:56.550Z,95774.06
2022-07-27T23:18:59.441Z,95770.88
2022-07-27T23:24:03.152Z,95774.78
2022-07-27T23:29:09.255Z,95769.78
2022-07-27T23:34:12.386Z,95779.31
2022-07-27T23:39:15.434Z,95769.75
2022-07-27T23:44:19.657Z,95774.53
2022-07-27T23:49:22.914Z,95770.16
2022-07-27T23:54:25.795Z,95773.78
2022-07-27T23:59:30.014Z,95754.38
